sensor_id;sensor_type;location;lat;lon;timestamp;P1;durP1;ratioP1;P2;durP2;ratioP2
48040;SDS011;33815;48.386;11.738;2023-04-15T00:00:29;14.80;;;9.10;;
48040;SDS011;33815;48.386;11.738;2023-04-15T00:02:54;12.20;;;9.38;;
48040;SDS011;33815;48.386;11.738;2023-04-15T00:05:20;14.23;;;9.38;;
48040;SDS011;33815;48.386;11.738;2023-04-15T00:07:45;14.57;;;9.25;;
48040;SDS011;33815;48.386;11.738;2023-04-15T00:10:11;13.55;;;9.77;;
48040;SDS011;33815;48.386;11.738;2023-04-15T00:12:37;17.05;;;10.60;;
48040;SDS011;33815;48.386;11.738;2023-04-15T00:15:02;15.18;;;9.75;;
48040;SDS011;33815;48.386;11.738;2023-04-15T00:17:28;16.17;;;10.15;;
48040;SDS011;33815;48.386;11.738;2023-04-15T00:19:53;13.93;;;10.10;;
48040;SDS011;33815;48.386;11.738;2023-04-15T00:22:19;14.25;;;10.27;;
48040;SDS011;33815;48.386;11.738;2023-04-15T00:24:44;14.45;;;9.77;;
48040;SDS011;33815;48.386;11.738;2023-04-15T00:27:09;20.10;;;11.68;;
48040;SDS011;33815;48.386;11.738;2023-04-15T00:29:35;18.17;;;10.52;;
48040;SDS011;33815;48.386;11.738;2023-04-15T00:32:00;11.95;;;9.90;;
48040;SDS011;33815;48.386;11.738;2023-04-15T00:34:26;13.70;;;10.15;;
48040;SDS011;33815;48.386;11.738;2023-04-15T00:36:52;14.75;;;11.05;;
48040;SDS011;33815;48.386;11.738;2023-04-15T00:39:18;15.45;;;10.38;;
48040;SDS011;33815;48.386;11.738;2023-04-15T00:41:43;14.63;;;10.00;;
48040;SDS011;33815;48.386;11.738;2023-04-15T00:44:09;14.88;;;9.57;;
48040;SDS011;33815;48.386;11.738;2023-04-15T00:46:35;15.70;;;11.25;;
48040;SDS011;33815;48.386;11.738;2023-04-15T00:49:05;15.77;;;10.38;;
48040;SDS011;33815;48.386;11.738;2023-04-15T00:51:31;13.43;;;9.68;;
48040;SDS011;33815;48.386;11.738;2023-04-15T00:53:59;13.15;;;9.52;;
48040;SDS011;33815;48.386;11.738;2023-04-15T00:56:25;13.68;;;8.45;;
48040;SDS011;33815;48.386;11.738;2023-04-15T00:58:53;11.88;;;8.77;;
48040;SDS011;33815;48.386;11.738;2023-04-15T01:01:22;12.57;;;9.02;;
48040;SDS011;33815;48.386;11.738;2023-04-15T01:03:50;13.57;;;9.80;;
48040;SDS011;33815;48.386;11.738;2023-04-15T01:06:15;12.43;;;8.80;;
48040;SDS011;33815;48.386;11.738;2023-04-15T01:08:41;12.55;;;9.10;;
48040;SDS011;33815;48.386;11.738;2023-04-15T01:11:07;16.20;;;10.10;;
48040;SDS011;33815;48.386;11.738;2023-04-15T01:13:33;15.23;;;9.43;;
48040;SDS011;33815;48.386;11.738;2023-04-15T01:15:59;13.75;;;9.52;;
48040;SDS011;33815;48.386;11.738;2023-04-15T01:18:24;13.82;;;9.23;;
48040;SDS011;33815;48.386;11.738;2023-04-15T01:20:50;15.02;;;10.02;;
48040;SDS011;33815;48.386;11.738;2023-04-15T01:23:15;17.00;;;8.52;;
48040;SDS011;33815;48.386;11.738;2023-04-15T01:25:41;14.48;;;9.43;;
48040;SDS011;33815;48.386;11.738;2023-04-15T01:28:07;15.00;;;8.90;;
48040;SDS011;33815;48.386;11.738;2023-04-15T01:30:33;11.40;;;9.15;;
48040;SDS011;33815;48.386;11.738;2023-04-15T01:32:59;15.68;;;8.82;;
48040;SDS011;33815;48.386;11.738;2023-04-15T01:35:25;12.18;;;9.27;;
48040;SDS011;33815;48.386;11.738;2023-04-15T01:37:51;12.32;;;8.30;;
48040;SDS011;33815;48.386;11.738;2023-04-15T01:40:18;13.35;;;9.48;;
48040;SDS011;33815;48.386;11.738;2023-04-15T01:42:43;16.52;;;9.13;;
48040;SDS011;33815;48.386;11.738;2023-04-15T01:45:09;12.27;;;8.50;;
48040;SDS011;33815;48.386;11.738;2023-04-15T01:47:35;12.27;;;8.13;;
48040;SDS011;33815;48.386;11.738;2023-04-15T01:50:00;11.52;;;8.57;;
48040;SDS011;33815;48.386;11.738;2023-04-15T01:52:25;12.25;;;8.50;;
48040;SDS011;33815;48.386;11.738;2023-04-15T01:54:50;16.05;;;9.05;;
48040;SDS011;33815;48.386;11.738;2023-04-15T01:57:16;12.52;;;9.82;;
48040;SDS011;33815;48.386;11.738;2023-04-15T01:59:41;11.55;;;8.23;;
48040;SDS011;33815;48.386;11.738;2023-04-15T02:02:06;16.58;;;9.02;;
48040;SDS011;33815;48.386;11.738;2023-04-15T02:04:31;11.68;;;7.93;;
48040;SDS011;33815;48.386;11.738;2023-04-15T02:06:58;11.15;;;7.90;;
48040;SDS011;33815;48.386;11.738;2023-04-15T02:09:23;14.40;;;7.95;;
48040;SDS011;33815;48.386;11.738;2023-04-15T02:11:49;13.45;;;9.77;;
48040;SDS011;33815;48.386;11.738;2023-04-15T02:14:16;11.35;;;8.15;;
48040;SDS011;33815;48.386;11.738;2023-04-15T02:16:42;11.93;;;8.77;;
48040;SDS011;33815;48.386;11.738;2023-04-15T02:19:07;10.40;;;8.07;;
48040;SDS011;33815;48.386;11.738;2023-04-15T02:21:32;13.05;;;8.75;;
48040;SDS011;33815;48.386;11.738;2023-04-15T02:23:59;10.95;;;8.35;;
48040;SDS011;33815;48.386;11.738;2023-04-15T02:26:24;11.63;;;8.20;;
48040;SDS011;33815;48.386;11.738;2023-04-15T02:28:49;11.75;;;8.05;;
48040;SDS011;33815;48.386;11.738;2023-04-15T02:31:17;10.65;;;8.10;;
48040;SDS011;33815;48.386;11.738;2023-04-15T02:33:43;17.05;;;8.75;;
48040;SDS011;33815;48.386;11.738;2023-04-15T02:36:08;14.25;;;8.80;;
48040;SDS011;33815;48.386;11.738;2023-04-15T02:38:35;11.32;;;8.57;;
48040;SDS011;33815;48.386;11.738;2023-04-15T02:41:02;15.23;;;8.55;;
48040;SDS011;33815;48.386;11.738;2023-04-15T02:43:27;11.43;;;9.07;;
48040;SDS011;33815;48.386;11.738;2023-04-15T02:45:52;11.15;;;9.15;;
48040;SDS011;33815;48.386;11.738;2023-04-15T02:48:17;11.15;;;8.50;;
48040;SDS011;33815;48.386;11.738;2023-04-15T02:50:44;12.77;;;8.93;;
48040;SDS011;33815;48.386;11.738;2023-04-15T02:53:10;12.73;;;8.23;;
48040;SDS011;33815;48.386;11.738;2023-04-15T02:55:37;12.60;;;8.80;;
48040;SDS011;33815;48.386;11.738;2023-04-15T02:58:02;11.57;;;8.63;;
48040;SDS011;33815;48.386;11.738;2023-04-15T03:00:27;14.07;;;9.10;;
48040;SDS011;33815;48.386;11.738;2023-04-15T03:02:56;14.45;;;9.55;;
48040;SDS011;33815;48.386;11.738;2023-04-15T03:05:23;15.25;;;9.15;;
48040;SDS011;33815;48.386;11.738;2023-04-15T03:07:51;13.70;;;8.77;;
48040;SDS011;33815;48.386;11.738;2023-04-15T03:10:17;13.65;;;8.50;;
48040;SDS011;33815;48.386;11.738;2023-04-15T03:12:42;13.35;;;9.07;;
48040;SDS011;33815;48.386;11.738;2023-04-15T03:15:08;14.77;;;9.25;;
48040;SDS011;33815;48.386;11.738;2023-04-15T03:17:34;13.77;;;9.10;;
48040;SDS011;33815;48.386;11.738;2023-04-15T03:20:03;17.13;;;9.55;;
48040;SDS011;33815;48.386;11.738;2023-04-15T03:22:30;13.15;;;9.65;;
48040;SDS011;33815;48.386;11.738;2023-04-15T03:24:55;16.52;;;9.77;;
48040;SDS011;33815;48.386;11.738;2023-04-15T03:27:21;18.00;;;9.77;;
48040;SDS011;33815;48.386;11.738;2023-04-15T03:29:46;14.32;;;8.90;;
48040;SDS011;33815;48.386;11.738;2023-04-15T03:32:11;11.68;;;8.80;;
48040;SDS011;33815;48.386;11.738;2023-04-15T03:34:39;17.85;;;9.32;;
48040;SDS011;33815;48.386;11.738;2023-04-15T03:37:04;13.90;;;9.82;;
48040;SDS011;33815;48.386;11.738;2023-04-15T03:39:29;17.27;;;10.25;;
48040;SDS011;33815;48.386;11.738;2023-04-15T03:41:55;15.50;;;10.63;;
48040;SDS011;33815;48.386;11.738;2023-04-15T03:44:21;15.30;;;9.70;;
48040;SDS011;33815;48.386;11.738;2023-04-15T03:46:47;15.23;;;9.93;;
48040;SDS011;33815;48.386;11.738;2023-04-15T03:49:12;14.25;;;9.90;;
48040;SDS011;33815;48.386;11.738;2023-04-15T03:51:38;18.58;;;10.23;;
48040;SDS011;33815;48.386;11.738;2023-04-15T03:54:03;14.15;;;9.32;;
48040;SDS011;33815;48.386;11.738;2023-04-15T03:56:28;15.93;;;10.65;;
48040;SDS011;33815;48.386;11.738;2023-04-15T03:58:53;16.50;;;10.73;;
48040;SDS011;33815;48.386;11.738;2023-04-15T04:01:19;16.83;;;10.63;;
48040;SDS011;33815;48.386;11.738;2023-04-15T04:03:45;16.75;;;11.52;;
48040;SDS011;33815;48.386;11.738;2023-04-15T04:06:10;14.63;;;10.38;;
48040;SDS011;33815;48.386;11.738;2023-04-15T04:08:36;16.48;;;11.55;;
48040;SDS011;33815;48.386;11.738;2023-04-15T04:11:01;15.65;;;10.07;;
48040;SDS011;33815;48.386;11.738;2023-04-15T04:13:27;16.20;;;10.27;;
48040;SDS011;33815;48.386;11.738;2023-04-15T04:15:52;19.65;;;10.98;;
48040;SDS011;33815;48.386;11.738;2023-04-15T04:18:18;15.38;;;10.25;;
48040;SDS011;33815;48.386;11.738;2023-04-15T04:20:43;14.38;;;10.63;;
48040;SDS011;33815;48.386;11.738;2023-04-15T04:23:08;15.60;;;9.38;;
48040;SDS011;33815;48.386;11.738;2023-04-15T04:25:33;15.05;;;9.52;;
48040;SDS011;33815;48.386;11.738;2023-04-15T04:27:59;15.20;;;9.60;;
48040;SDS011;33815;48.386;11.738;2023-04-15T04:30:24;19.00;;;10.15;;
48040;SDS011;33815;48.386;11.738;2023-04-15T04:32:50;15.32;;;9.35;;
48040;SDS011;33815;48.386;11.738;2023-04-15T04:35:15;18.13;;;10.18;;
48040;SDS011;33815;48.386;11.738;2023-04-15T04:37:40;16.65;;;10.63;;
48040;SDS011;33815;48.386;11.738;2023-04-15T04:40:06;18.77;;;11.65;;
48040;SDS011;33815;48.386;11.738;2023-04-15T04:42:32;12.88;;;9.57;;
48040;SDS011;33815;48.386;11.738;2023-04-15T04:44:57;16.30;;;9.27;;
48040;SDS011;33815;48.386;11.738;2023-04-15T04:47:22;15.98;;;9.60;;
48040;SDS011;33815;48.386;11.738;2023-04-15T04:49:48;16.48;;;10.32;;
48040;SDS011;33815;48.386;11.738;2023-04-15T04:52:13;14.10;;;8.93;;
48040;SDS011;33815;48.386;11.738;2023-04-15T04:54:38;16.02;;;10.55;;
48040;SDS011;33815;48.386;11.738;2023-04-15T04:57:04;15.05;;;10.68;;
48040;SDS011;33815;48.386;11.738;2023-04-15T04:59:29;16.98;;;11.20;;
48040;SDS011;33815;48.386;11.738;2023-04-15T05:01:54;15.02;;;10.20;;
48040;SDS011;33815;48.386;11.738;2023-04-15T05:04:20;16.70;;;10.40;;
48040;SDS011;33815;48.386;11.738;2023-04-15T05:06:45;15.50;;;10.77;;
48040;SDS011;33815;48.386;11.738;2023-04-15T05:09:10;14.13;;;9.80;;
48040;SDS011;33815;48.386;11.738;2023-04-15T05:11:36;13.95;;;10.02;;
48040;SDS011;33815;48.386;11.738;2023-04-15T05:14:01;17.50;;;10.05;;
48040;SDS011;33815;48.386;11.738;2023-04-15T05:16:26;12.60;;;9.68;;
48040;SDS011;33815;48.386;11.738;2023-04-15T05:18:52;12.25;;;8.38;;
48040;SDS011;33815;48.386;11.738;2023-04-15T05:21:17;12.23;;;8.93;;
48040;SDS011;33815;48.386;11.738;2023-04-15T05:23:43;15.60;;;9.77;;
48040;SDS011;33815;48.386;11.738;2023-04-15T05:26:08;15.77;;;9.80;;
48040;SDS011;33815;48.386;11.738;2023-04-15T05:28:33;14.13;;;10.20;;
48040;SDS011;33815;48.386;11.738;2023-04-15T05:30:59;17.10;;;10.73;;
48040;SDS011;33815;48.386;11.738;2023-04-15T05:33:24;17.65;;;9.88;;
48040;SDS011;33815;48.386;11.738;2023-04-15T05:35:50;18.00;;;9.98;;
48040;SDS011;33815;48.386;11.738;2023-04-15T05:38:15;12.68;;;8.45;;
48040;SDS011;33815;48.386;11.738;2023-04-15T05:40:40;14.45;;;9.48;;
48040;SDS011;33815;48.386;11.738;2023-04-15T05:43:06;16.20;;;9.15;;
48040;SDS011;33815;48.386;11.738;2023-04-15T05:45:31;15.90;;;9.20;;
48040;SDS011;33815;48.386;11.738;2023-04-15T05:47:57;12.57;;;7.88;;
48040;SDS011;33815;48.386;11.738;2023-04-15T05:50:22;10.98;;;8.52;;
48040;SDS011;33815;48.386;11.738;2023-04-15T05:52:47;12.63;;;8.50;;
48040;SDS011;33815;48.386;11.738;2023-04-15T05:55:13;9.35;;;7.38;;
48040;SDS011;33815;48.386;11.738;2023-04-15T05:57:38;9.43;;;7.90;;
48040;SDS011;33815;48.386;11.738;2023-04-15T06:00:03;10.68;;;8.05;;
48040;SDS011;33815;48.386;11.738;2023-04-15T06:02:29;10.32;;;7.50;;
48040;SDS011;33815;48.386;11.738;2023-04-15T06:04:55;16.27;;;8.45;;
48040;SDS011;33815;48.386;11.738;2023-04-15T06:07:21;12.45;;;7.72;;
48040;SDS011;33815;48.386;11.738;2023-04-15T06:09:47;13.40;;;7.18;;
48040;SDS011;33815;48.386;11.738;2023-04-15T06:12:12;12.05;;;8.25;;
48040;SDS011;33815;48.386;11.738;2023-04-15T06:14:38;11.68;;;7.68;;
48040;SDS011;33815;48.386;11.738;2023-04-15T06:17:04;11.95;;;7.20;;
48040;SDS011;33815;48.386;11.738;2023-04-15T06:19:30;8.98;;;7.05;;
48040;SDS011;33815;48.386;11.738;2023-04-15T06:21:55;13.20;;;7.30;;
48040;SDS011;33815;48.386;11.738;2023-04-15T06:24:22;10.23;;;7.07;;
48040;SDS011;33815;48.386;11.738;2023-04-15T06:26:47;8.73;;;6.60;;
48040;SDS011;33815;48.386;11.738;2023-04-15T06:29:12;8.93;;;7.43;;
48040;SDS011;33815;48.386;11.738;2023-04-15T06:31:38;9.02;;;6.95;;
48040;SDS011;33815;48.386;11.738;2023-04-15T06:34:03;10.52;;;7.70;;
48040;SDS011;33815;48.386;11.738;2023-04-15T06:36:29;8.82;;;7.57;;
48040;SDS011;33815;48.386;11.738;2023-04-15T06:38:54;8.88;;;7.13;;
48040;SDS011;33815;48.386;11.738;2023-04-15T06:41:21;8.07;;;7.00;;
48040;SDS011;33815;48.386;11.738;2023-04-15T06:43:46;7.65;;;6.30;;
48040;SDS011;33815;48.386;11.738;2023-04-15T06:46:11;9.00;;;6.97;;
48040;SDS011;33815;48.386;11.738;2023-04-15T06:48:37;8.98;;;6.60;;
48040;SDS011;33815;48.386;11.738;2023-04-15T06:51:02;12.23;;;6.90;;
48040;SDS011;33815;48.386;11.738;2023-04-15T06:53:28;9.25;;;7.13;;
48040;SDS011;33815;48.386;11.738;2023-04-15T06:55:53;9.25;;;7.03;;
48040;SDS011;33815;48.386;11.738;2023-04-15T06:58:18;8.73;;;6.93;;
48040;SDS011;33815;48.386;11.738;2023-04-15T07:00:44;9.52;;;6.78;;
48040;SDS011;33815;48.386;11.738;2023-04-15T07:03:10;8.70;;;6.60;;
48040;SDS011;33815;48.386;11.738;2023-04-15T07:05:36;8.20;;;6.90;;
48040;SDS011;33815;48.386;11.738;2023-04-15T07:08:02;9.73;;;6.97;;
48040;SDS011;33815;48.386;11.738;2023-04-15T07:10:28;10.43;;;6.50;;
48040;SDS011;33815;48.386;11.738;2023-04-15T07:12:53;11.68;;;7.47;;
48040;SDS011;33815;48.386;11.738;2023-04-15T07:15:18;12.38;;;6.78;;
48040;SDS011;33815;48.386;11.738;2023-04-15T07:17:44;7.80;;;6.32;;
48040;SDS011;33815;48.386;11.738;2023-04-15T07:20:09;7.57;;;6.67;;
48040;SDS011;33815;48.386;11.738;2023-04-15T07:22:35;6.82;;;6.13;;
48040;SDS011;33815;48.386;11.738;2023-04-15T07:25:00;8.45;;;7.05;;
48040;SDS011;33815;48.386;11.738;2023-04-15T07:27:25;11.68;;;6.00;;
48040;SDS011;33815;48.386;11.738;2023-04-15T07:29:51;8.75;;;6.82;;
48040;SDS011;33815;48.386;11.738;2023-04-15T07:32:17;7.40;;;6.60;;
48040;SDS011;33815;48.386;11.738;2023-04-15T07:34:42;9.90;;;7.00;;
48040;SDS011;33815;48.386;11.738;2023-04-15T07:37:08;8.18;;;5.57;;
48040;SDS011;33815;48.386;11.738;2023-04-15T07:39:33;6.45;;;5.80;;
48040;SDS011;33815;48.386;11.738;2023-04-15T07:41:59;7.97;;;5.75;;
48040;SDS011;33815;48.386;11.738;2023-04-15T07:44:25;7.60;;;6.23;;
48040;SDS011;33815;48.386;11.738;2023-04-15T07:46:51;7.82;;;6.07;;
48040;SDS011;33815;48.386;11.738;2023-04-15T07:49:16;10.17;;;5.87;;
48040;SDS011;33815;48.386;11.738;2023-04-15T07:51:43;8.07;;;6.25;;
48040;SDS011;33815;48.386;11.738;2023-04-15T07:54:08;8.85;;;5.50;;
48040;SDS011;33815;48.386;11.738;2023-04-15T07:56:34;9.48;;;5.80;;
48040;SDS011;33815;48.386;11.738;2023-04-15T07:58:59;9.00;;;5.80;;
48040;SDS011;33815;48.386;11.738;2023-04-15T08:01:26;11.95;;;6.60;;
48040;SDS011;33815;48.386;11.738;2023-04-15T08:03:51;7.40;;;5.90;;
48040;SDS011;33815;48.386;11.738;2023-04-15T08:06:17;6.95;;;5.82;;
48040;SDS011;33815;48.386;11.738;2023-04-15T08:08:42;11.30;;;5.70;;
48040;SDS011;33815;48.386;11.738;2023-04-15T08:11:07;7.68;;;5.63;;
48040;SDS011;33815;48.386;11.738;2023-04-15T08:13:33;9.05;;;5.40;;
48040;SDS011;33815;48.386;11.738;2023-04-15T08:18:45;6.55;;;5.53;;
48040;SDS011;33815;48.386;11.738;2023-04-15T08:21:11;6.40;;;5.18;;
48040;SDS011;33815;48.386;11.738;2023-04-15T08:23:37;8.07;;;5.93;;
48040;SDS011;33815;48.386;11.738;2023-04-15T08:26:03;9.43;;;5.78;;
48040;SDS011;33815;48.386;11.738;2023-04-15T08:28:29;7.35;;;5.35;;
48040;SDS011;33815;48.386;11.738;2023-04-15T08:30:54;7.13;;;5.75;;
48040;SDS011;33815;48.386;11.738;2023-04-15T08:33:20;10.68;;;5.15;;
48040;SDS011;33815;48.386;11.738;2023-04-15T08:35:45;8.63;;;5.22;;
48040;SDS011;33815;48.386;11.738;2023-04-15T08:38:11;8.30;;;5.30;;
48040;SDS011;33815;48.386;11.738;2023-04-15T08:40:43;6.43;;;5.30;;
48040;SDS011;33815;48.386;11.738;2023-04-15T08:43:22;5.75;;;4.45;;
48040;SDS011;33815;48.386;11.738;2023-04-15T08:45:52;7.50;;;5.57;;
48040;SDS011;33815;48.386;11.738;2023-04-15T08:48:18;5.88;;;4.63;;
48040;SDS011;33815;48.386;11.738;2023-04-15T08:50:44;6.40;;;4.78;;
48040;SDS011;33815;48.386;11.738;2023-04-15T08:53:11;7.03;;;5.22;;
48040;SDS011;33815;48.386;11.738;2023-04-15T08:55:39;5.78;;;5.20;;
48040;SDS011;33815;48.386;11.738;2023-04-15T08:58:11;8.00;;;5.15;;
48040;SDS011;33815;48.386;11.738;2023-04-15T09:00:39;5.22;;;3.92;;
48040;SDS011;33815;48.386;11.738;2023-04-15T09:03:06;7.45;;;4.78;;
48040;SDS011;33815;48.386;11.738;2023-04-15T09:05:33;4.75;;;4.05;;
48040;SDS011;33815;48.386;11.738;2023-04-15T09:07:59;9.30;;;5.40;;
48040;SDS011;33815;48.386;11.738;2023-04-15T09:10:26;5.10;;;4.13;;
48040;SDS011;33815;48.386;11.738;2023-04-15T09:12:52;5.25;;;4.40;;
48040;SDS011;33815;48.386;11.738;2023-04-15T09:15:17;6.70;;;4.15;;
48040;SDS011;33815;48.386;11.738;2023-04-15T09:17:42;7.28;;;4.68;;
48040;SDS011;33815;48.386;11.738;2023-04-15T09:20:10;6.15;;;4.57;;
48040;SDS011;33815;48.386;11.738;2023-04-15T09:22:39;6.95;;;3.83;;
48040;SDS011;33815;48.386;11.738;2023-04-15T09:25:27;8.90;;;4.82;;
48040;SDS011;33815;48.386;11.738;2023-04-15T09:27:53;4.43;;;3.97;;
48040;SDS011;33815;48.386;11.738;2023-04-15T09:30:20;5.15;;;4.25;;
48040;SDS011;33815;48.386;11.738;2023-04-15T09:32:49;5.72;;;4.50;;
48040;SDS011;33815;48.386;11.738;2023-04-15T09:35:15;6.07;;;4.43;;
48040;SDS011;33815;48.386;11.738;2023-04-15T09:37:41;6.75;;;4.53;;
48040;SDS011;33815;48.386;11.738;2023-04-15T09:40:06;5.40;;;4.53;;
48040;SDS011;33815;48.386;11.738;2023-04-15T09:42:34;6.10;;;4.13;;
48040;SDS011;33815;48.386;11.738;2023-04-15T09:45:12;5.68;;;4.43;;
48040;SDS011;33815;48.386;11.738;2023-04-15T09:47:37;8.32;;;4.32;;
48040;SDS011;33815;48.386;11.738;2023-04-15T09:50:02;8.90;;;4.75;;
48040;SDS011;33815;48.386;11.738;2023-04-15T09:52:28;5.80;;;4.03;;
48040;SDS011;33815;48.386;11.738;2023-04-15T09:54:55;8.73;;;6.03;;
48040;SDS011;33815;48.386;11.738;2023-04-15T09:57:22;8.60;;;5.28;;
48040;SDS011;33815;48.386;11.738;2023-04-15T09:59:48;10.75;;;5.30;;
48040;SDS011;33815;48.386;11.738;2023-04-15T10:02:14;5.40;;;4.80;;
48040;SDS011;33815;48.386;11.738;2023-04-15T10:04:42;7.15;;;5.10;;
48040;SDS011;33815;48.386;11.738;2023-04-15T10:07:09;6.18;;;4.50;;
48040;SDS011;33815;48.386;11.738;2023-04-15T10:09:37;7.45;;;5.03;;
48040;SDS011;33815;48.386;11.738;2023-04-15T10:12:03;9.15;;;5.22;;
48040;SDS011;33815;48.386;11.738;2023-04-15T10:14:30;5.88;;;5.05;;
48040;SDS011;33815;48.386;11.738;2023-04-15T10:17:00;6.45;;;4.95;;
48040;SDS011;33815;48.386;11.738;2023-04-15T10:19:26;7.07;;;4.85;;
48040;SDS011;33815;48.386;11.738;2023-04-15T10:21:55;10.43;;;4.68;;
48040;SDS011;33815;48.386;11.738;2023-04-15T10:24:22;4.45;;;4.07;;
48040;SDS011;33815;48.386;11.738;2023-04-15T10:26:49;7.47;;;4.40;;
48040;SDS011;33815;48.386;11.738;2023-04-15T10:29:15;8.85;;;4.80;;
48040;SDS011;33815;48.386;11.738;2023-04-15T10:31:41;7.90;;;4.95;;
48040;SDS011;33815;48.386;11.738;2023-04-15T10:34:07;7.95;;;5.15;;
48040;SDS011;33815;48.386;11.738;2023-04-15T10:36:33;5.57;;;4.95;;
48040;SDS011;33815;48.386;11.738;2023-04-15T10:38:58;5.72;;;3.92;;
48040;SDS011;33815;48.386;11.738;2023-04-15T10:41:24;4.97;;;4.47;;
48040;SDS011;33815;48.386;11.738;2023-04-15T10:46:34;5.53;;;4.20;;
48040;SDS011;33815;48.386;11.738;2023-04-15T10:49:11;5.35;;;4.60;;
48040;SDS011;33815;48.386;11.738;2023-04-15T10:51:39;7.57;;;4.63;;
48040;SDS011;33815;48.386;11.738;2023-04-15T10:54:16;7.30;;;3.75;;
48040;SDS011;33815;48.386;11.738;2023-04-15T10:59:28;6.25;;;4.35;;
48040;SDS011;33815;48.386;11.738;2023-04-15T11:02:00;7.72;;;4.15;;
48040;SDS011;33815;48.386;11.738;2023-04-15T11:09:58;5.28;;;4.15;;
48040;SDS011;33815;48.386;11.738;2023-04-15T11:12:31;4.30;;;3.90;;
48040;SDS011;33815;48.386;11.738;2023-04-15T11:14:59;6.22;;;4.43;;
48040;SDS011;33815;48.386;11.738;2023-04-15T11:17:27;5.78;;;4.28;;
48040;SDS011;33815;48.386;11.738;2023-04-15T11:19:53;5.88;;;4.32;;
48040;SDS011;33815;48.386;11.738;2023-04-15T11:22:18;5.47;;;4.35;;
48040;SDS011;33815;48.386;11.738;2023-04-15T11:24:46;6.85;;;4.75;;
48040;SDS011;33815;48.386;11.738;2023-04-15T11:27:22;8.15;;;4.88;;
48040;SDS011;33815;48.386;11.738;2023-04-15T11:29:47;7.72;;;4.03;;
48040;SDS011;33815;48.386;11.738;2023-04-15T11:32:13;6.03;;;4.40;;
48040;SDS011;33815;48.386;11.738;2023-04-15T11:34:38;7.93;;;5.43;;
48040;SDS011;33815;48.386;11.738;2023-04-15T11:37:06;4.20;;;3.47;;
48040;SDS011;33815;48.386;11.738;2023-04-15T11:39:32;6.13;;;4.35;;
48040;SDS011;33815;48.386;11.738;2023-04-15T11:41:57;5.90;;;4.03;;
48040;SDS011;33815;48.386;11.738;2023-04-15T11:44:23;9.00;;;4.65;;
48040;SDS011;33815;48.386;11.738;2023-04-15T11:46:48;4.88;;;4.22;;
48040;SDS011;33815;48.386;11.738;2023-04-15T11:49:27;7.10;;;3.90;;
48040;SDS011;33815;48.386;11.738;2023-04-15T11:51:53;5.15;;;4.05;;
48040;SDS011;33815;48.386;11.738;2023-04-15T11:54:18;4.97;;;4.30;;
48040;SDS011;33815;48.386;11.738;2023-04-15T11:56:46;6.25;;;4.70;;
48040;SDS011;33815;48.386;11.738;2023-04-15T11:59:14;4.63;;;4.10;;
48040;SDS011;33815;48.386;11.738;2023-04-15T12:01:40;8.05;;;4.78;;
48040;SDS011;33815;48.386;11.738;2023-04-15T12:04:14;7.68;;;4.60;;
48040;SDS011;33815;48.386;11.738;2023-04-15T12:06:42;5.60;;;3.88;;
48040;SDS011;33815;48.386;11.738;2023-04-15T12:09:09;6.30;;;4.38;;
48040;SDS011;33815;48.386;11.738;2023-04-15T12:14:18;7.72;;;4.50;;
48040;SDS011;33815;48.386;11.738;2023-04-15T12:16:57;5.95;;;3.63;;
48040;SDS011;33815;48.386;11.738;2023-04-15T12:22:07;5.97;;;4.33;;
48040;SDS011;33815;48.386;11.738;2023-04-15T12:24:34;6.13;;;4.93;;
48040;SDS011;33815;48.386;11.738;2023-04-15T12:27:01;5.70;;;4.55;;
48040;SDS011;33815;48.386;11.738;2023-04-15T12:29:28;5.03;;;4.13;;
48040;SDS011;33815;48.386;11.738;2023-04-15T12:31:55;7.40;;;5.05;;
48040;SDS011;33815;48.386;11.738;2023-04-15T12:34:32;5.13;;;4.65;;
48040;SDS011;33815;48.386;11.738;2023-04-15T12:37:00;6.85;;;4.30;;
48040;SDS011;33815;48.386;11.738;2023-04-15T12:39:29;5.32;;;4.45;;
48040;SDS011;33815;48.386;11.738;2023-04-15T12:41:56;7.93;;;5.00;;
48040;SDS011;33815;48.386;11.738;2023-04-15T12:44:23;7.28;;;4.32;;
48040;SDS011;33815;48.386;11.738;2023-04-15T12:46:49;5.50;;;4.65;;
48040;SDS011;33815;48.386;11.738;2023-04-15T12:49:15;4.57;;;4.07;;
48040;SDS011;33815;48.386;11.738;2023-04-15T12:51:43;5.57;;;4.32;;
48040;SDS011;33815;48.386;11.738;2023-04-15T12:54:08;8.23;;;5.18;;
48040;SDS011;33815;48.386;11.738;2023-04-15T12:56:34;5.28;;;4.78;;
48040;SDS011;33815;48.386;11.738;2023-04-15T12:58:59;5.25;;;4.20;;
48040;SDS011;33815;48.386;11.738;2023-04-15T13:01:24;5.00;;;4.38;;
48040;SDS011;33815;48.386;11.738;2023-04-15T13:03:50;4.65;;;3.50;;
48040;SDS011;33815;48.386;11.738;2023-04-15T13:06:15;5.22;;;3.60;;
48040;SDS011;33815;48.386;11.738;2023-04-15T13:08:41;4.75;;;4.03;;
48040;SDS011;33815;48.386;11.738;2023-04-15T13:11:06;6.03;;;3.70;;
48040;SDS011;33815;48.386;11.738;2023-04-15T13:13:32;4.80;;;3.60;;
48040;SDS011;33815;48.386;11.738;2023-04-15T13:15:57;7.20;;;3.42;;
48040;SDS011;33815;48.386;11.738;2023-04-15T13:18:22;4.57;;;3.67;;
48040;SDS011;33815;48.386;11.738;2023-04-15T13:20:48;6.95;;;4.20;;
48040;SDS011;33815;48.386;11.738;2023-04-15T13:23:13;6.45;;;3.72;;
48040;SDS011;33815;48.386;11.738;2023-04-15T13:25:39;4.38;;;3.15;;
48040;SDS011;33815;48.386;11.738;2023-04-15T13:28:05;3.90;;;2.75;;
48040;SDS011;33815;48.386;11.738;2023-04-15T13:30:30;7.22;;;2.80;;
48040;SDS011;33815;48.386;11.738;2023-04-15T13:32:55;3.08;;;2.63;;
48040;SDS011;33815;48.386;11.738;2023-04-15T13:35:21;2.83;;;2.55;;
48040;SDS011;33815;48.386;11.738;2023-04-15T13:37:46;2.67;;;2.47;;
48040;SDS011;33815;48.386;11.738;2023-04-15T13:40:11;3.10;;;2.45;;
48040;SDS011;33815;48.386;11.738;2023-04-15T13:42:37;4.28;;;2.63;;
48040;SDS011;33815;48.386;11.738;2023-04-15T13:45:02;2.97;;;2.42;;
48040;SDS011;33815;48.386;11.738;2023-04-15T13:47:28;3.55;;;2.53;;
48040;SDS011;33815;48.386;11.738;2023-04-15T13:49:53;3.92;;;2.80;;
48040;SDS011;33815;48.386;11.738;2023-04-15T13:52:20;2.60;;;2.40;;
48040;SDS011;33815;48.386;11.738;2023-04-15T13:54:46;2.35;;;2.17;;
48040;SDS011;33815;48.386;11.738;2023-04-15T13:57:11;5.35;;;2.28;;
48040;SDS011;33815;48.386;11.738;2023-04-15T13:59:37;2.80;;;2.22;;
48040;SDS011;33815;48.386;11.738;2023-04-15T14:02:02;3.10;;;2.58;;
48040;SDS011;33815;48.386;11.738;2023-04-15T14:04:27;2.70;;;2.47;;
48040;SDS011;33815;48.386;11.738;2023-04-15T14:06:53;2.20;;;2.00;;
48040;SDS011;33815;48.386;11.738;2023-04-15T14:09:18;3.45;;;2.38;;
48040;SDS011;33815;48.386;11.738;2023-04-15T14:11:46;3.80;;;2.45;;
48040;SDS011;33815;48.386;11.738;2023-04-15T14:14:11;3.25;;;2.50;;
48040;SDS011;33815;48.386;11.738;2023-04-15T14:16:36;3.08;;;2.80;;
48040;SDS011;33815;48.386;11.738;2023-04-15T14:19:02;2.95;;;2.45;;
48040;SDS011;33815;48.386;11.738;2023-04-15T14:21:27;3.20;;;2.60;;
48040;SDS011;33815;48.386;11.738;2023-04-15T14:23:53;4.57;;;2.70;;
48040;SDS011;33815;48.386;11.738;2023-04-15T14:26:19;3.60;;;3.05;;
48040;SDS011;33815;48.386;11.738;2023-04-15T14:28:44;2.90;;;2.50;;
48040;SDS011;33815;48.386;11.738;2023-04-15T14:31:10;3.35;;;2.95;;
48040;SDS011;33815;48.386;11.738;2023-04-15T14:33:35;3.70;;;2.95;;
48040;SDS011;33815;48.386;11.738;2023-04-15T14:36:01;3.33;;;2.90;;
48040;SDS011;33815;48.386;11.738;2023-04-15T14:38:26;2.78;;;2.30;;